Time;durP1;ratioP1;P1;durP2;ratioP2;P2;SDS_P1;SDS_P2;PMS_P1;PMS_P2;Temp;Humidity;BMP_temperature;BMP_pressure;BME280_temperature;BME280_humidity;BME280_pressure;Samples;Min_cycle;Max_cycle;Signal;HPM_P1;HPM_P2
2022/09/01 00:01:53;;;;;;;4.78;1.10;;;21.50;65.20;;;;;;5056864;28;20030;-91
2022/09/01 00:04:22;;;;;;;2.35;0.88;;;21.40;65.30;;;;;;5039755;28;20056;-91
2022/09/01 00:06:48;;;;;;;0.90;0.80;;;21.40;65.50;;;;;;5056766;28;20025;-89
2022/09/01 00:09:17;;;;;;;1.15;0.80;;;21.40;65.40;;;;;;5056321;28;20024;-89
2022/09/01 00:11:46;;;;;;;1.20;0.82;;;21.30;65.30;;;;;;5058146;28;20016;-91
2022/09/01 00:14:13;;;;;;;1.95;1.10;;;21.30;65.40;;;;;;5058529;28;20100;-89
2022/09/01 00:16:39;;;;;;;3.70;0.93;;;21.30;65.50;;;;;;5043042;28;20014;-91
2022/09/01 00:19:05;;;;;;;2.15;0.85;;;21.30;65.60;;;;;;5042556;28;20001;-92
2022/09/01 00:21:36;;;;;;;1.50;1.10;;;21.20;65.80;;;;;;5076205;28;20013;-93
2022/09/01 00:24:02;;;;;;;2.63;1.10;;;21.20;65.80;;;;;;5055867;28;20021;-91
2022/09/01 00:26:28;;;;;;;1.88;0.93;;;21.10;65.80;;;;;;5058383;28;20013;-92
2022/09/01 00:28:54;;;;;;;1.33;0.90;;;21.10;66.00;;;;;;5052748;28;20024;-90
2022/09/01 00:31:21;;;;;;;3.15;1.20;;;21.10;66.10;;;;;;5031412;28;20030;-93
2022/09/01 00:33:47;;;;;;;2.92;0.93;;;21.00;66.10;;;;;;5037348;28;20041;-91
2022/09/01 00:36:14;;;;;;;1.73;1.20;;;21.00;66.30;;;;;;5035953;28;20036;-92
2022/09/01 00:38:40;;;;;;;2.10;1.30;;;21.00;66.40;;;;;;5069164;28;20064;-92
2022/09/01 00:41:06;;;;;;;2.15;0.95;;;21.00;66.50;;;;;;5035670;28;20127;-91
2022/09/01 00:43:48;;;;;;;1.17;0.90;;;20.90;66.50;;;;;;5036835;28;20021;-93
2022/09/01 00:46:24;;;;;;;2.50;1.05;;;20.90;66.70;;;;;;5035875;28;20022;-92
2022/09/01 00:49:01;;;;;;;1.95;1.00;;;20.90;66.80;;;;;;5035860;28;20461;-91
2022/09/01 00:51:27;;;;;;;2.55;1.20;;;20.80;66.80;;;;;;5034205;28;20489;-92
2022/09/01 00:53:55;;;;;;;1.63;0.90;;;20.80;66.80;;;;;;4983428;28;20378;-93
2022/09/01 00:56:22;;;;;;;3.05;1.08;;;20.80;66.80;;;;;;5016729;28;20034;-92
2022/09/01 00:58:48;;;;;;;2.63;1.02;;;20.70;66.90;;;;;;4999801;28;20034;-92
2022/09/01 01:01:14;;;;;;;2.13;1.23;;;20.70;67.10;;;;;;4983476;28;20532;-93
2022/09/01 01:03:44;;;;;;;1.90;1.27;;;20.70;67.10;;;;;;4983275;28;20026;-93
2022/09/01 01:06:12;;;;;;;2.25;1.00;;;20.70;67.10;;;;;;4983805;28;20056;-92
2022/09/01 01:08:48;;;;;;;1.52;0.82;;;20.60;67.10;;;;;;5015325;28;20018;-90
2022/09/01 01:11:16;;;;;;;3.25;0.85;;;20.60;67.20;;;;;;5014106;28;20076;-92
2022/09/01 01:13:56;;;;;;;1.70;0.98;;;20.60;67.20;;;;;;4999167;28;20080;-92
2022/09/01 01:16:24;;;;;;;2.92;1.35;;;20.50;67.30;;;;;;4999347;28;20029;-92
2022/09/01 01:18:50;;;;;;;2.47;1.30;;;20.50;67.20;;;;;;4999067;28;20018;-91
2022/09/01 01:24:31;;;;;;;3.60;1.17;;;20.50;67.10;;;;;;5017436;28;20133;-93
2022/09/01 01:26:58;;;;;;;2.13;1.17;;;20.50;67.10;;;;;;5000303;28;20036;-93
2022/09/01 01:29:32;;;;;;;3.78;1.40;;;20.40;67.20;;;;;;5004714;28;20080;-93
2022/09/01 01:31:59;;;;;;;2.67;1.48;;;20.40;67.40;;;;;;5027163;28;20030;-91
2022/09/01 01:34:26;;;;;;;4.15;1.35;;;20.40;67.50;;;;;;5020405;28;20030;-91
2022/09/01 01:36:52;;;;;;;2.78;1.38;;;20.30;67.50;;;;;;4995872;28;20027;-92
2022/09/01 01:39:27;;;;;;;2.75;1.30;;;20.30;67.40;;;;;;5024806;28;20116;-93
2022/09/01 01:41:55;;;;;;;2.70;1.48;;;20.30;67.20;;;;;;5015187;28;20076;-92
2022/09/01 01:44:27;;;;;;;6.40;1.58;;;20.30;67.40;;;;;;5016303;28;20018;-92
2022/09/01 01:46:53;;;;;;;1.90;1.13;;;20.30;67.40;;;;;;4998715;28;20100;-92
2022/09/01 01:49:23;;;;;;;2.63;1.20;;;20.30;67.60;;;;;;4998329;28;20036;-92
2022/09/01 01:51:56;;;;;;;4.57;1.20;;;20.20;67.50;;;;;;5005289;28;20133;-93
2022/09/01 01:54:24;;;;;;;3.00;1.20;;;20.20;67.50;;;;;;5034714;28;20033;-92
2022/09/01 01:56:50;;;;;;;3.83;1.40;;;20.20;67.60;;;;;;5051117;28;20067;-93
2022/09/01 01:59:16;;;;;;;5.45;1.77;;;20.20;67.70;;;;;;5067298;28;20033;-92
2022/09/01 02:01:48;;;;;;;2.33;1.50;;;20.20;67.70;;;;;;5050683;28;20021;-91
2022/09/01 02:04:15;;;;;;;3.17;1.27;;;20.10;67.60;;;;;;5034707;28;20030;-92
2022/09/01 02:06:44;;;;;;;2.92;1.30;;;20.10;67.70;;;;;;5035746;28;20026;-91
2022/09/01 02:09:11;;;;;;;3.00;1.20;;;20.10;67.80;;;;;;5034252;28;20021;-91
2022/09/01 02:11:38;;;;;;;2.85;1.30;;;20.10;67.80;;;;;;5035026;28;20037;-90
2022/09/01 02:14:06;;;;;;;1.95;1.17;;;20.10;67.70;;;;;;5050941;28;20108;-91
2022/09/01 02:16:32;;;;;;;2.30;1.05;;;20.10;67.80;;;;;;5033805;28;20032;-92
2022/09/01 02:18:59;;;;;;;4.38;1.23;;;20.00;67.70;;;;;;5030590;28;20090;-91
2022/09/01 02:21:25;;;;;;;4.88;1.45;;;20.00;67.60;;;;;;5041629;28;20033;-91
2022/09/01 02:23:59;;;;;;;1.80;0.95;;;20.00;67.50;;;;;;5034140;28;20025;-91
2022/09/01 02:26:30;;;;;;;1.80;1.10;;;20.00;67.60;;;;;;5034327;28;20481;-92
2022/09/01 02:28:55;;;;;;;;;;;20.00;67.60;;;;;;5034915;28;20022;-91
2022/09/01 02:31:22;;;;;;;1.92;0.90;;;19.90;67.30;;;;;;5051023;28;19913;-90
2022/09/01 02:33:48;;;;;;;3.10;1.00;;;19.90;67.40;;;;;;5017517;28;20036;-91
2022/09/01 02:36:18;;;;;;;2.58;0.95;;;19.90;67.50;;;;;;5036801;28;20033;-90
2022/09/01 02:38:44;;;;;;;5.53;1.40;;;19.90;67.50;;;;;;5048984;28;20030;-91
2022/09/01 02:41:13;;;;;;;2.65;1.00;;;19.80;67.50;;;;;;5052696;28;20032;-90
2022/09/01 02:43:39;;;;;;;2.10;1.15;;;19.80;67.60;;;;;;5055305;28;20035;-89
2022/09/01 02:46:05;;;;;;;2.28;1.15;;;19.80;67.60;;;;;;5084418;28;20101;-91
2022/09/01 02:48:36;;;;;;;2.45;0.90;;;19.80;67.70;;;;;;5042728;28;20025;-93
2022/09/01 02:51:16;;;;;;;2.05;1.00;;;19.70;67.60;;;;;;5038323;28;20028;-92
2022/09/01 02:53:45;;;;;;;2.13;1.23;;;19.80;67.80;;;;;;5039080;28;20033;-91
2022/09/01 02:56:13;;;;;;;3.33;1.13;;;19.70;67.80;;;;;;5064234;28;20045;-92
2022/09/01 02:58:44;;;;;;;1.70;1.00;;;19.70;67.80;;;;;;5089039;28;20055;-90
2022/09/01 03:01:23;;;;;;;1.48;1.00;;;19.70;67.80;;;;;;5055680;28;20013;-91
2022/09/01 03:03:56;;;;;;;3.92;1.10;;;19.60;67.90;;;;;;5056129;28;20029;-91
2022/09/01 03:06:22;;;;;;;1.65;1.10;;;19.60;68.00;;;;;;5054659;28;20077;-92
2022/09/01 03:08:49;;;;;;;1.73;1.00;;;19.60;68.10;;;;;;5070880;28;20022;-92
2022/09/01 03:11:15;;;;;;;1.80;1.00;;;19.60;68.10;;;;;;5055595;28;20029;-93
2022/09/01 03:13:42;;;;;;;4.65;1.23;;;19.60;68.10;;;;;;5055830;28;20026;-90
2022/09/01 03:16:09;;;;;;;1.95;1.30;;;19.60;68.20;;;;;;5056412;28;20056;-89
2022/09/01 03:18:34;;;;;;;2.25;1.27;;;19.50;68.10;;;;;;5073180;28;20014;-91
2022/09/01 03:21:01;;;;;;;3.90;1.50;;;19.50;68.10;;;;;;5071919;28;20010;-91
2022/09/01 03:23:28;;;;;;;3.45;1.10;;;19.50;68.10;;;;;;5056585;28;20029;-90
2022/09/01 03:25:54;;;;;;;3.25;1.33;;;19.50;68.20;;;;;;5068247;28;20056;-91
2022/09/01 03:28:20;;;;;;;2.88;1.23;;;19.40;68.10;;;;;;5049223;28;20017;-92
2022/09/01 03:30:51;;;;;;;2.28;1.30;;;19.40;68.30;;;;;;5052247;28;20057;-92
2022/09/01 03:33:18;;;;;;;2.05;1.10;;;19.40;68.40;;;;;;5034383;28;20041;-91
2022/09/01 03:35:44;;;;;;;1.83;0.90;;;19.40;68.40;;;;;;5051711;28;20100;-92
2022/09/01 03:38:11;;;;;;;2.28;1.17;;;19.40;68.40;;;;;;5049930;28;20037;-92
2022/09/01 03:40:38;;;;;;;2.05;0.95;;;19.30;68.30;;;;;;5033192;28;20060;-92
2022/09/01 03:43:08;;;;;;;5.97;1.60;;;19.30;68.30;;;;;;5034048;28;20029;-91
2022/09/01 03:45:37;;;;;;;3.43;1.43;;;19.30;68.30;;;;;;5033584;28;20105;-92
2022/09/01 03:48:08;;;;;;;3.05;1.20;;;19.30;68.30;;;;;;5032990;28;20814;-90
2022/09/01 03:50:35;;;;;;;;;;;19.20;68.30;;;;;;5033452;28;20028;-91
2022/09/01 03:53:01;;;;;;;1.67;1.05;;;19.20;68.50;;;;;;5032734;28;20011;-92
2022/09/01 03:55:29;;;;;;;4.75;1.60;;;19.20;68.40;;;;;;5034322;28;20057;-91
2022/09/01 03:58:05;;;;;;;1.92;1.15;;;19.20;68.60;;;;;;5049700;28;20087;-90
2022/09/01 04:00:34;;;;;;;1.45;1.02;;;19.10;68.60;;;;;;5034377;28;20026;-92
2022/09/01 04:03:02;;;;;;;2.28;1.08;;;19.10;68.70;;;;;;5033001;28;20049;-92
2022/09/01 04:05:32;;;;;;;2.30;1.02;;;19.10;68.60;;;;;;5035174;28;20068;-91
2022/09/01 04:08:11;;;;;;;3.38;1.20;;;19.10;68.60;;;;;;5035925;28;20583;-92
2022/09/01 04:10:47;;;;;;;1.75;1.30;;;19.00;68.50;;;;;;5033687;28;20089;-91
2022/09/01 04:13:14;;;;;;;1.55;1.10;;;19.00;68.50;;;;;;5033172;28;20049;-92
2022/09/01 04:15:39;;;;;;;2.03;1.05;;;19.00;68.70;;;;;;5049541;28;20057;-90
2022/09/01 04:18:08;;;;;;;4.78;1.63;;;19.00;68.80;;;;;;5019529;28;20030;-91
2022/09/01 04:20:47;;;;;;;2.28;1.02;;;19.00;68.90;;;;;;5037954;28;20454;-91
2022/09/01 04:23:15;;;;;;;1.45;0.90;;;18.90;68.90;;;;;;5018276;28;20485;-92
2022/09/01 04:25:41;;;;;;;4.22;1.25;;;18.90;68.80;;;;;;5038845;28;20044;-92
2022/09/01 04:28:16;;;;;;;3.70;1.67;;;18.90;68.90;;;;;;5069304;28;20022;-92
2022/09/01 04:30:42;;;;;;;1.85;1.17;;;18.80;68.70;;;;;;5017963;28;20030;-91
2022/09/01 04:33:09;;;;;;;3.03;0.98;;;18.80;68.80;;;;;;5037371;28;20139;-90
2022/09/01 04:35:39;;;;;;;3.35;1.20;;;18.80;69.00;;;;;;5036613;28;20025;-90
2022/09/01 04:38:07;;;;;;;1.85;1.13;;;18.80;69.00;;;;;;5069022;28;20030;-93
2022/09/01 04:40:37;;;;;;;1.52;1.23;;;18.80;69.00;;;;;;5070085;28;20021;-91
2022/09/01 04:43:04;;;;;;;4.63;1.27;;;18.70;69.00;;;;;;5037799;28;20481;-91
2022/09/01 04:45:30;;;;;;;2.63;1.10;;;18.70;69.30;;;;;;5055685;28;20025;-90
2022/09/01 04:47:59;;;;;;;1.50;0.90;;;18.70;69.90;;;;;;5073867;28;20029;-92
2022/09/01 04:50:26;;;;;;;2.33;1.10;;;18.70;69.40;;;;;;5042653;28;20017;-90
2022/09/01 04:52:53;;;;;;;2.90;1.20;;;18.70;69.30;;;;;;5039811;28;20041;-92
2022/09/01 04:55:19;;;;;;;3.13;1.30;;;18.70;69.40;;;;;;5039570;28;20056;-92
2022/09/01 04:57:48;;;;;;;3.58;1.23;;;18.60;69.40;;;;;;5039202;28;20458;-91
2022/09/01 05:00:22;;;;;;;2.20;1.10;;;18.60;69.30;;;;;;5023176;28;20061;-92
2022/09/01 05:03:03;;;;;;;1.83;1.30;;;18.60;69.30;;;;;;5035968;28;20026;-90
2022/09/01 05:05:38;;;;;;;1.85;1.13;;;18.60;69.40;;;;;;5032953;28;20026;-90
2022/09/01 05:08:04;;;;;;;3.17;1.13;;;18.50;69.50;;;;;;5034706;28;20492;-90
2022/09/01 05:10:30;;;;;;;3.30;1.13;;;18.50;69.60;;;;;;5037867;28;20083;-90
2022/09/01 05:12:56;;;;;;;2.45;1.35;;;18.50;69.50;;;;;;5038590;28;20037;-90
2022/09/01 05:15:22;;;;;;;2.78;1.40;;;18.50;69.70;;;;;;5020603;28;20117;-91
2022/09/01 05:17:48;;;;;;;1.20;1.00;;;18.50;69.80;;;;;;5056048;28;20105;-90
2022/09/01 05:20:15;;;;;;;4.15;1.30;;;18.40;69.90;;;;;;5028927;28;20179;-92
2022/09/01 05:22:41;;;;;;;5.53;1.67;;;18.40;70.00;;;;;;5036191;28;20037;-93
2022/09/01 05:25:12;;;;;;;1.60;1.15;;;18.40;70.00;;;;;;5037241;28;20203;-93
2022/09/01 05:27:48;;;;;;;1.90;1.23;;;18.40;69.90;;;;;;5019274;28;20484;-92
2022/09/01 05:30:15;;;;;;;4.45;1.52;;;18.40;70.10;;;;;;5036390;28;20029;-94
2022/09/01 05:32:49;;;;;;;5.18;1.60;;;18.30;70.00;;;;;;5053193;28;20037;-90
2022/09/01 05:35:16;;;;;;;3.33;1.20;;;18.30;70.10;;;;;;5037843;28;20033;-92
2022/09/01 05:37:42;;;;;;;3.20;1.23;;;18.30;70.20;;;;;;5035239;28;20025;-93
2022/09/01 05:40:14;;;;;;;2.50;1.30;;;18.30;70.30;;;;;;5031749;28;20087;-91
2022/09/01 05:42:43;;;;;;;3.90;1.60;;;18.30;70.40;;;;;;5034893;28;20071;-92
2022/09/01 05:45:10;;;;;;;1.95;1.20;;;18.20;70.30;;;;;;5018583;28;20089;-92
2022/09/01 05:47:37;;;;;;;3.58;1.13;;;18.20;70.20;;;;;;5034287;28;20083;-92
2022/09/01 05:50:04;;;;;;;2.17;1.10;;;18.20;70.40;;;;;;5034595;28;20049;-93
2022/09/01 05:52:35;;;;;;;2.40;1.27;;;18.20;70.40;;;;;;5034197;28;20045;-93
2022/09/01 05:55:00;;;;;;;2.05;1.23;;;18.20;70.40;;;;;;5037145;28;20025;-93
2022/09/01 05:57:26;;;;;;;3.13;1.00;;;18.20;70.40;;;;;;5018369;28;20029;-93
2022/09/01 05:59:54;;;;;;;3.30;1.15;;;18.20;70.40;;;;;;5051546;28;20108;-91
2022/09/01 06:02:22;;;;;;;5.18;1.30;;;18.20;70.20;;;;;;5050929;28;20595;-94
2022/09/01 06:04:47;;;;;;;3.85;1.20;;;18.20;70.30;;;;;;5035263;28;20025;-92
2022/09/01 06:07:16;;;;;;;4.50;1.15;;;18.20;70.10;;;;;;5073199;28;20036;-93
2022/09/01 06:09:45;;;;;;;2.88;1.55;;;18.20;70.00;;;;;;5082456;28;20026;-92
2022/09/01 06:12:16;;;;;;;4.60;1.33;;;18.20;69.90;;;;;;5049057;28;20017;-93
2022/09/01 06:14:43;;;;;;;4.28;1.20;;;18.20;69.90;;;;;;5042646;28;20124;-91
2022/09/01 06:17:10;;;;;;;2.05;1.20;;;18.10;69.90;;;;;;5034554;28;20084;-91
2022/09/01 06:19:38;;;;;;;5.07;1.27;;;18.10;70.00;;;;;;5015282;28;20102;-93
2022/09/01 06:22:04;;;;;;;3.13;1.27;;;18.10;70.10;;;;;;5034776;28;20016;-94
2022/09/01 06:24:30;;;;;;;5.20;1.23;;;18.10;70.10;;;;;;5035476;28;20034;-92
2022/09/01 06:26:56;;;;;;;2.15;0.90;;;18.10;70.10;;;;;;5034195;28;20056;-94
2022/09/01 06:29:22;;;;;;;1.55;1.02;;;18.10;70.10;;;;;;5036083;28;20029;-92
2022/09/01 06:31:50;;;;;;;6.93;1.55;;;18.10;70.00;;;;;;5034328;28;20033;-91
2022/09/01 06:34:18;;;;;;;2.28;1.10;;;18.20;70.10;;;;;;5020912;28;20135;-91
2022/09/01 06:36:50;;;;;;;4.95;1.15;;;18.20;70.10;;;;;;5034175;28;20404;-90
2022/09/01 06:39:19;;;;;;;2.63;1.30;;;18.20;70.00;;;;;;5034700;28;20053;-93
2022/09/01 06:41:48;;;;;;;3.95;1.35;;;18.20;70.00;;;;;;5035053;28;20067;-91
2022/09/01 06:44:14;;;;;;;3.13;1.05;;;18.20;70.00;;;;;;5046553;28;20193;-93
2022/09/01 06:46:40;;;;;;;4.50;1.67;;;18.10;70.00;;;;;;5034965;28;20025;-92
2022/09/01 06:49:10;;;;;;;2.88;0.95;;;18.20;70.20;;;;;;5034110;28;20026;-92
2022/09/01 06:51:36;;;;;;;2.60;1.20;;;18.20;70.20;;;;;;5065763;28;20049;-92
2022/09/01 06:54:02;;;;;;;1.98;1.10;;;18.20;70.20;;;;;;5034481;28;20026;-90
2022/09/01 06:56:32;;;;;;;4.50;1.33;;;18.20;70.30;;;;;;5051037;28;20103;-93
2022/09/01 06:58:59;;;;;;;1.95;1.20;;;18.30;70.40;;;;;;5034446;28;20085;-92
2022/09/01 07:01:26;;;;;;;4.07;1.15;;;18.30;70.50;;;;;;5045853;28;20029;-94
2022/09/01 07:03:53;;;;;;;2.58;1.30;;;18.30;70.40;;;;;;5038575;28;20037;-92
2022/09/01 07:06:26;;;;;;;2.70;1.02;;;18.30;70.00;;;;;;5034376;28;20021;-93
2022/09/01 07:08:54;;;;;;;2.42;1.20;;;18.40;69.80;;;;;;5034379;28;20024;-93
2022/09/01 07:11:28;;;;;;;2.72;1.13;;;18.40;69.80;;;;;;5035204;28;20022;-93
2022/09/01 07:13:57;;;;;;;2.78;1.20;;;18.40;69.80;;;;;;5034725;28;20020;-92
2022/09/01 07:16:25;;;;;;;2.78;1.15;;;18.40;69.90;;;;;;5034047;28;20017;-91
2022/09/01 07:18:56;;;;;;;3.05;1.63;;;18.40;69.90;;;;;;5034158;28;20021;-91
2022/09/01 07:21:22;;;;;;;;;;;18.40;69.90;;;;;;5034626;28;20124;-92
2022/09/01 07:23:48;;;;;;;2.28;1.05;;;18.40;69.90;;;;;;5034438;28;20359;-91
2022/09/01 07:26:18;;;;;;;2.88;1.00;;;18.40;69.90;;;;;;5034324;28;20083;-89
2022/09/01 07:28:49;;;;;;;3.03;0.98;;;18.50;70.00;;;;;;5034390;28;20084;-92
2022/09/01 07:31:42;;;;;;;2.33;1.10;;;18.50;69.90;;;;;;5033781;28;20017;-88
2022/09/01 07:34:12;;;;;;;3.10;1.08;;;18.60;69.70;;;;;;5033975;28;20040;-91
2022/09/01 07:36:44;;;;;;;1.35;0.88;;;18.60;69.70;;;;;;5034276;28;20160;-92
2022/09/01 07:39:11;;;;;;;3.55;1.60;;;18.60;69.80;;;;;;5035351;28;20018;-92
2022/09/01 07:41:37;;;;;;;2.60;1.40;;;18.70;69.60;;;;;;5033794;28;20449;-92
2022/09/01 07:44:04;;;;;;;5.75;1.25;;;18.70;69.30;;;;;;5034252;28;20032;-92
2022/09/01 07:46:31;;;;;;;3.00;1.10;;;18.80;69.30;;;;;;5035282;28;20116;-92
2022/09/01 07:48:58;;;;;;;2.50;1.20;;;18.80;69.10;;;;;;5067695;28;20014;-93
2022/09/01 07:51:25;;;;;;;1.50;1.10;;;18.90;69.10;;;;;;5034972;28;20052;-91
2022/09/01 07:53:51;;;;;;;3.88;1.30;;;18.90;69.00;;;;;;5054835;28;20036;-91
2022/09/01 07:56:19;;;;;;;1.67;1.20;;;18.90;69.00;;;;;;5054556;28;20138;-91
2022/09/01 07:58:47;;;;;;;5.07;1.30;;;19.00;69.10;;;;;;5071321;28;20476;-92
2022/09/01 08:01:17;;;;;;;3.45;1.50;;;19.00;69.30;;;;;;5057884;28;20025;-91
2022/09/01 08:03:51;;;;;;;5.13;1.30;;;19.10;69.40;;;;;;5039463;28;20022;-92
2022/09/01 08:06:20;;;;;;;3.08;1.10;;;19.20;69.40;;;;;;5039769;28;20025;-92
2022/09/01 08:08:48;;;;;;;1.92;1.23;;;19.20;69.50;;;;;;5055781;28;20021;-91
2022/09/01 08:11:27;;;;;;;3.05;1.23;;;19.30;69.50;;;;;;5038190;28;20045;-92
2022/09/01 08:13:54;;;;;;;2.55;1.33;;;19.40;69.40;;;;;;5038494;28;20021;-92
2022/09/01 08:16:21;;;;;;;2.67;0.98;;;19.40;69.30;;;;;;5037199;28;20163;-93
2022/09/01 08:18:47;;;;;;;2.40;1.17;;;19.50;69.60;;;;;;5036845;28;20093;-92
2022/09/01 08:21:13;;;;;;;4.32;1.17;;;19.60;69.90;;;;;;5036674;28;20025;-92
2022/09/01 08:23:40;;;;;;;2.63;1.27;;;19.70;70.00;;;;;;5037028;28;20021;-92
2022/09/01 08:26:13;;;;;;;4.80;1.45;;;19.80;69.90;;;;;;5034161;28;20034;-95
2022/09/01 08:28:39;;;;;;;4.97;1.80;;;19.90;69.40;;;;;;5050881;28;20062;-93
2022/09/01 08:31:07;;;;;;;5.72;1.50;;;20.00;69.10;;;;;;5035706;28;20030;-92
2022/09/01 08:33:34;;;;;;;3.28;1.10;;;20.10;68.90;;;;;;5036615;28;20029;-86
2022/09/01 08:36:00;;;;;;;2.17;1.08;;;20.20;68.70;;;;;;5034998;28;20025;-82
2022/09/01 08:38:26;;;;;;;2.85;0.95;;;20.20;68.70;;;;;;5068602;28;20022;-87
2022/09/01 08:40:58;;;;;;;4.80;1.17;;;20.30;68.70;;;;;;5052623;28;20025;-88
2022/09/01 08:43:32;;;;;;;1.75;1.02;;;20.40;68.70;;;;;;5037347;28;20037;-88
2022/09/01 08:46:24;;;;;;;2.58;1.13;;;20.50;68.90;;;;;;5040326;28;20033;-87
2022/09/01 08:49:24;;;;;;;4.25;1.10;;;20.60;68.80;;;;;;5035450;28;20033;-87
2022/09/01 08:52:09;;;;;;;2.00;0.80;;;20.70;68.80;;;;;;5036777;28;20049;-88
2022/09/01 08:54:52;;;;;;;2.67;1.02;;;20.80;68.40;;;;;;5041689;28;20025;-87
2022/09/01 08:57:50;;;;;;;;;;;;;;;;;;;;;
2022/09/01 09:00:19;;;;;;;3.70;1.25;;;20.90;68.30;;;;;;5042048;28;20089;-93
2022/09/01 09:03:05;;;;;;;6.40;1.45;;;21.00;67.70;;;;;;5044071;28;20091;-94
2022/09/01 09:05:47;;;;;;;3.83;1.20;;;21.10;66.70;;;;;;5056118;28;20021;-90
2022/09/01 09:08:41;;;;;;;2.60;1.08;;;21.20;66.20;;;;;;5062946;28;20089;-90
2022/09/01 09:11:21;;;;;;;3.35;0.80;;;21.30;66.50;;;;;;5075441;28;20013;-93
2022/09/01 09:13:59;;;;;;;0.77;0.57;;;21.40;67.00;;;;;;5059159;28;20064;-90
2022/09/01 09:16:33;;;;;;;2.20;0.95;;;21.50;66.90;;;;;;5074462;28;20016;-93
2022/09/01 09:19:07;;;;;;;1.83;0.90;;;21.60;66.40;;;;;;5091875;28;20028;-92
2022/09/01 09:21:37;;;;;;;5.95;1.25;;;21.60;66.40;;;;;;5058172;28;20006;-90
2022/09/01 09:24:14;;;;;;;1.93;0.90;;;21.80;66.20;;;;;;5054590;28;20032;-93
2022/09/01 09:26:46;;;;;;;1.65;0.50;;;21.80;65.80;;;;;;5058349;28;20014;-92
2022/09/01 09:29:12;;;;;;;4.22;1.05;;;21.90;65.10;;;;;;5059174;28;20005;-93
2022/09/01 09:31:44;;;;;;;0.80;0.70;;;22.00;64.40;;;;;;5057799;28;20017;-92
2022/09/01 09:34:32;;;;;;;2.22;0.70;;;22.10;63.60;;;;;;5091519;28;20076;-94
2022/09/01 09:37:18;;;;;;;2.80;0.88;;;22.10;62.80;;;;;;5058677;28;20040;-92
2022/09/01 09:39:44;;;;;;;3.92;0.82;;;22.20;62.70;;;;;;5059348;28;20014;-91
2022/09/01 09:42:12;;;;;;;1.40;0.75;;;22.30;62.70;;;;;;5058785;28;20056;-92
2022/09/01 09:44:45;;;;;;;1.95;0.80;;;22.40;62.40;;;;;;5058319;28;20014;-88
2022/09/01 09:47:37;;;;;;;0.95;0.60;;;22.50;61.30;;;;;;5058407;28;20065;-91
2022/09/01 09:50:21;;;;;;;1.60;0.70;;;22.60;61.20;;;;;;5058702;28;20022;-92
2022/09/01 09:52:49;;;;;;;1.73;0.70;;;22.70;60.50;;;;;;5061687;28;20080;-89
2022/09/01 09:55:35;;;;;;;1.17;0.60;;;22.70;60.40;;;;;;5059042;28;20038;-91
2022/09/01 09:58:10;;;;;;;0.80;0.70;;;22.80;60.10;;;;;;5091987;28;20001;-92
2022/09/01 10:00:37;;;;;;;1.85;0.70;;;22.90;60.00;;;;;;5058704;28;20014;-92
2022/09/01 10:03:10;;;;;;;1.55;0.82;;;23.00;59.60;;;;;;5058180;28;20033;-92
2022/09/01 10:05:38;;;;;;;1.73;1.10;;;23.00;58.80;;;;;;5056260;28;20044;-89
2022/09/01 10:08:08;;;;;;;3.55;0.75;;;23.10;57.50;;;;;;5074665;28;20029;-92
2022/09/01 10:10:45;;;;;;;0.75;0.60;;;23.20;57.60;;;;;;5054953;28;20104;-94
2022/09/01 10:13:17;;;;;;;1.20;0.80;;;23.30;57.70;;;;;;5043465;28;20048;-93
2022/09/01 10:15:49;;;;;;;1.52;0.68;;;23.40;57.70;;;;;;5043674;28;20028;-92
2022/09/01 10:18:18;;;;;;;2.00;0.80;;;23.50;57.60;;;;;;5054242;28;20021;-89
2022/09/01 10:21:00;;;;;;;1.77;0.90;;;23.50;56.80;;;;;;5036332;28;20021;-93
2022/09/01 10:23:28;;;;;;;1.80;0.88;;;23.60;56.40;;;;;;5052581;28;20021;-95
2022/09/01 10:25:58;;;;;;;1.38;0.70;;;23.70;56.40;;;;;;5036567;28;20474;-94
2022/09/01 10:28:28;;;;;;;1.93;1.10;;;23.80;56.00;;;;;;5038400;28;20044;-94
2022/09/01 10:30:55;;;;;;;1.40;0.70;;;23.80;55.30;;;;;;5039325;28;20266;-93
2022/09/01 10:33:21;;;;;;;2.72;0.80;;;23.90;54.80;;;;;;5066360;28;20038;-86
2022/09/01 10:35:52;;;;;;;4.32;0.77;;;24.00;54.70;;;;;;5017983;28;20048;-85
2022/09/01 10:38:30;;;;;;;3.67;0.88;;;24.00;54.20;;;;;;5052377;28;20036;-87
2022/09/01 10:41:17;;;;;;;;;;;;;;;;;;;;;
2022/09/01 10:43:47;;;;;;;1.08;0.63;;;24.20;53.80;;;;;;5036071;28;20021;-91
2022/09/01 10:46:27;;;;;;;1.38;0.80;;;24.20;53.30;;;;;;5033323;28;20033;-88
2022/09/01 10:48:58;;;;;;;1.40;0.70;;;24.30;53.50;;;;;;5033403;28;20022;-86
2022/09/01 10:51:24;;;;;;;0.63;0.52;;;24.40;53.50;;;;;;5033632;28;20029;-92
2022/09/01 10:54:00;;;;;;;1.58;0.82;;;24.40;53.30;;;;;;5046498;28;20056;-90
2022/09/01 10:56:43;;;;;;;1.23;0.70;;;24.50;53.70;;;;;;5035285;28;20044;-92
2022/09/01 10:59:27;;;;;;;2.00;0.70;;;24.60;53.40;;;;;;5048661;28;20120;-93
2022/09/01 11:01:53;;;;;;;8.23;1.30;;;24.70;52.90;;;;;;5045562;28;20026;-92
2022/09/01 11:04:31;;;;;;;1.67;0.90;;;24.80;51.80;;;;;;5035807;28;20042;-95
2022/09/01 11:07:05;;;;;;;0.95;0.70;;;24.80;50.70;;;;;;5038747;28;20022;-93
2022/09/01 11:09:41;;;;;;;2.50;0.63;;;24.90;50.40;;;;;;5067751;28;20190;-94
2022/09/01 11:12:44;;;;;;;0.80;0.70;;;24.90;50.50;;;;;;5051494;28;20054;-93
2022/09/01 11:15:14;;;;;;;2.83;0.77;;;25.00;51.00;;;;;;5037945;28;20021;-93
2022/09/01 11:17:49;;;;;;;0.80;0.55;;;25.10;51.00;;;;;;5033974;28;20362;-93
2022/09/01 11:20:28;;;;;;;1.55;0.95;;;25.20;51.00;;;;;;5050588;28;20033;-92
2022/09/01 11:23:20;;;;;;;0.90;0.60;;;25.20;50.60;;;;;;5033703;28;20024;-93
2022/09/01 11:26:24;;;;;;;1.95;0.50;;;25.30;50.50;;;;;;5024636;28;20051;-93
2022/09/01 11:28:52;;;;;;;2.55;0.80;;;25.40;50.60;;;;;;5037946;28;20104;-92
2022/09/01 11:31:42;;;;;;;3.38;0.82;;;25.50;50.00;;;;;;5071173;28;20038;-93
2022/09/01 11:34:18;;;;;;;1.45;0.98;;;25.60;50.10;;;;;;5025162;28;20029;-93
2022/09/01 11:36:49;;;;;;;1.45;0.90;;;25.60;50.20;;;;;;5038670;28;20454;-93
2022/09/01 11:39:18;;;;;;;1.70;0.73;;;25.70;49.70;;;;;;5038342;28;20036;-94
2022/09/01 11:42:00;;;;;;;2.65;0.80;;;25.80;48.90;;;;;;5039968;28;20029;-94
2022/09/01 11:44:31;;;;;;;2.45;0.80;;;25.80;48.50;;;;;;5055301;28;20034;-93
2022/09/01 11:47:05;;;;;;;0.60;0.60;;;25.90;48.40;;;;;;5055246;28;20029;-94
2022/09/01 11:49:38;;;;;;;3.05;1.65;;;26.00;48.50;;;;;;5037884;28;20159;-93
2022/09/01 11:52:05;;;;;;;0.77;0.60;;;26.10;48.60;;;;;;5039195;28;20077;-92
2022/09/01 11:54:40;;;;;;;1.60;0.82;;;26.20;48.60;;;;;;5038271;28;20096;-93
2022/09/01 11:57:34;;;;;;;1.30;0.70;;;26.20;49.20;;;;;;5037332;28;20489;-92
2022/09/01 12:00:07;;;;;;;0.80;0.75;;;26.30;48.70;;;;;;5037380;28;20484;-94
2022/09/01 12:02:35;;;;;;;1.17;0.80;;;26.40;48.60;;;;;;5038126;28;20017;-91
2022/09/01 12:05:21;;;;;;;1.83;0.80;;;26.50;48.50;;;;;;5037747;28;20059;-93
2022/09/01 12:07:47;;;;;;;2.35;0.98;;;26.50;48.50;;;;;;5041522;28;20013;-93
2022/09/01 12:10:18;;;;;;;1.35;0.85;;;26.60;48.60;;;;;;5027118;28;20032;-92
2022/09/01 12:12:45;;;;;;;2.50;1.20;;;26.70;48.10;;;;;;5056912;28;20018;-91
2022/09/01 12:15:23;;;;;;;2.63;1.10;;;26.80;48.30;;;;;;5058566;28;20033;-93
2022/09/01 12:17:49;;;;;;;1.77;0.85;;;26.80;48.60;;;;;;5039356;28;20075;-92
2022/09/01 12:20:24;;;;;;;3.38;1.17;;;26.90;48.50;;;;;;5038987;28;20427;-93
2022/09/01 12:22:52;;;;;;;3.42;1.20;;;27.00;48.30;;;;;;5039796;28;20037;-93
2022/09/01 12:25:26;;;;;;;3.53;0.90;;;27.10;48.10;;;;;;5038545;28;20017;-93
2022/09/01 12:28:00;;;;;;;0.95;0.73;;;27.10;48.10;;;;;;5041770;28;20025;-93
2022/09/01 12:30:34;;;;;;;1.52;1.00;;;27.20;48.40;;;;;;5054650;28;20081;-93
2022/09/01 12:33:02;;;;;;;1.95;0.90;;;27.30;48.60;;;;;;5044005;28;20053;-93
2022/09/01 12:35:28;;;;;;;1.77;1.02;;;27.40;48.50;;;;;;5037597;28;20037;-93
2022/09/01 12:38:19;;;;;;;4.13;0.95;;;27.50;48.40;;;;;;5036174;28;20022;-94
2022/09/01 12:40:53;;;;;;;3.92;1.10;;;27.50;47.50;;;;;;5056311;28;20529;-94
2022/09/01 12:43:35;;;;;;;4.15;1.00;;;27.50;46.70;;;;;;5023712;28;20025;-92
2022/09/01 12:46:03;;;;;;;1.88;1.00;;;27.70;46.80;;;;;;5025237;28;20026;-93
2022/09/01 12:48:40;;;;;;;4.38;1.02;;;27.70;47.00;;;;;;5039866;28;20026;-93
2022/09/01 12:51:24;;;;;;;2.38;0.90;;;27.70;47.00;;;;;;5049258;28;20017;-92
2022/09/01 12:53:54;;;;;;;5.05;1.30;;;27.80;46.90;;;;;;5052293;28;20041;-91
2022/09/01 12:56:30;;;;;;;1.77;0.90;;;27.90;47.00;;;;;;5051708;28;20104;-92
2022/09/01 12:59:22;;;;;;;1.35;0.93;;;27.90;46.60;;;;;;5046078;28;20531;-94
2022/09/01 13:01:47;;;;;;;2.70;1.17;;;28.00;45.20;;;;;;5036281;28;20021;-94
2022/09/01 13:04:24;;;;;;;3.17;1.65;;;28.00;44.60;;;;;;5052046;28;20036;-94
2022/09/01 13:06:51;;;;;;;2.47;1.10;;;28.10;44.20;;;;;;5035055;28;20021;-94
2022/09/01 13:09:17;;;;;;;2.85;1.20;;;28.10;44.20;;;;;;5036169;28;20537;-95
2022/09/01 13:11:46;;;;;;;4.78;1.38;;;28.10;44.20;;;;;;5070309;28;20038;-95
2022/09/01 13:14:12;;;;;;;5.65;1.05;;;28.10;44.00;;;;;;5036391;28;20261;-96